sensor_id;sensor_type;location;lat;lon;timestamp;temperature;humidity
4058;DHT22;2044;48.692;9.020;2023-08-30T00:01:33;11.70;99.90
4058;DHT22;2044;48.692;9.020;2023-08-30T00:04:00;11.30;99.90
4058;DHT22;2044;48.692;9.020;2023-08-30T00:06:26;11.40;99.90
4058;DHT22;2044;48.692;9.020;2023-08-30T00:08:53;11.40;99.90
4058;DHT22;2044;48.692;9.020;2023-08-30T00:11:22;11.40;99.90
4058;DHT22;2044;48.692;9.020;2023-08-30T00:13:48;11.30;99.90
4058;DHT22;2044;48.692;9.020;2023-08-30T00:16:16;11.50;99.90
4058;DHT22;2044;48.692;9.020;2023-08-30T00:18:43;11.20;99.90
4058;DHT22;2044;48.692;9.020;2023-08-30T00:26:04;11.40;99.90
4058;DHT22;2044;48.692;9.020;2023-08-30T00:28:31;11.60;99.90
4058;DHT22;2044;48.692;9.020;2023-08-30T00:33:26;11.40;99.90
4058;DHT22;2044;48.692;9.020;2023-08-30T00:35:56;11.20;99.90
4058;DHT22;2044;48.692;9.020;2023-08-30T00:43:18;11.40;99.90
4058;DHT22;2044;48.692;9.020;2023-08-30T00:48:12;11.30;99.90
4058;DHT22;2044;48.692;9.020;2023-08-30T00:50:41;9.80;99.90
4058;DHT22;2044;48.692;9.020;2023-08-30T00:53:07;11.20;99.90
4058;DHT22;2044;48.692;9.020;2023-08-30T00:58:02;11.20;99.90
4058;DHT22;2044;48.692;9.020;2023-08-30T01:00:29;11.30;99.90
4058;DHT22;2044;48.692;9.020;2023-08-30T01:02:56;11.20;99.90
4058;DHT22;2044;48.692;9.020;2023-08-30T01:05:23;11.00;99.90
4058;DHT22;2044;48.692;9.020;2023-08-30T01:07:52;11.10;99.90
4058;DHT22;2044;48.692;9.020;2023-08-30T01:10:24;10.80;99.90
4058;DHT22;2044;48.692;9.020;2023-08-30T01:13:03;11.30;99.90
4058;DHT22;2044;48.692;9.020;2023-08-30T01:18:02;11.10;99.90
4058;DHT22;2044;48.692;9.020;2023-08-30T01:20:35;10.80;99.90
4058;DHT22;2044;48.692;9.020;2023-08-30T01:23:06;11.00;99.90
4058;DHT22;2044;48.692;9.020;2023-08-30T01:25:46;11.10;99.90
4058;DHT22;2044;48.692;9.020;2023-08-30T01:28:16;11.20;99.90
4058;DHT22;2044;48.692;9.020;2023-08-30T01:30:45;11.20;99.90
4058;DHT22;2044;48.692;9.020;2023-08-30T01:33:14;11.20;99.90
4058;DHT22;2044;48.692;9.020;2023-08-30T01:35:41;10.90;99.90
4058;DHT22;2044;48.692;9.020;2023-08-30T01:38:09;11.10;99.90
4058;DHT22;2044;48.692;9.020;2023-08-30T01:40:37;10.90;99.90
4058;DHT22;2044;48.692;9.020;2023-08-30T01:43:07;10.90;99.90
4058;DHT22;2044;48.692;9.020;2023-08-30T01:45:40;10.80;99.90
4058;DHT22;2044;48.692;9.020;2023-08-30T01:48:10;10.80;99.90
4058;DHT22;2044;48.692;9.020;2023-08-30T01:50:38;10.60;99.90
4058;DHT22;2044;48.692;9.020;2023-08-30T01:53:05;10.80;99.90
4058;DHT22;2044;48.692;9.020;2023-08-30T01:55:33;10.70;99.90
4058;DHT22;2044;48.692;9.020;2023-08-30T02:00:27;11.10;99.90
4058;DHT22;2044;48.692;9.020;2023-08-30T02:02:56;10.90;99.90
4058;DHT22;2044;48.692;9.020;2023-08-30T02:05:23;10.90;99.90
4058;DHT22;2044;48.692;9.020;2023-08-30T02:07:54;10.80;99.90
4058;DHT22;2044;48.692;9.020;2023-08-30T02:10:24;10.90;99.90
4058;DHT22;2044;48.692;9.020;2023-08-30T02:12:54;11.10;99.90
4058;DHT22;2044;48.692;9.020;2023-08-30T02:17:48;10.70;99.90
4058;DHT22;2044;48.692;9.020;2023-08-30T02:20:17;10.60;99.90
4058;DHT22;2044;48.692;9.020;2023-08-30T02:22:44;10.70;99.90
4058;DHT22;2044;48.692;9.020;2023-08-30T02:27:38;10.30;99.90
4058;DHT22;2044;48.692;9.020;2023-08-30T02:30:05;10.50;99.90
4058;DHT22;2044;48.692;9.020;2023-08-30T02:32:32;10.60;99.90
4058;DHT22;2044;48.692;9.020;2023-08-30T02:37:27;10.50;99.90
4058;DHT22;2044;48.692;9.020;2023-08-30T02:39:54;10.40;99.90
4058;DHT22;2044;48.692;9.020;2023-08-30T02:42:21;10.60;99.90
4058;DHT22;2044;48.692;9.020;2023-08-30T02:44:48;10.20;99.90
4058;DHT22;2044;48.692;9.020;2023-08-30T02:47:14;10.40;99.90
4058;DHT22;2044;48.692;9.020;2023-08-30T02:49:41;10.50;99.90
4058;DHT22;2044;48.692;9.020;2023-08-30T02:54:36;10.30;99.90
4058;DHT22;2044;48.692;9.020;2023-08-30T02:57:03;10.40;99.90
4058;DHT22;2044;48.692;9.020;2023-08-30T02:59:29;10.40;99.90
4058;DHT22;2044;48.692;9.020;2023-08-30T03:01:56;10.20;99.90
4058;DHT22;2044;48.692;9.020;2023-08-30T03:04:23;10.20;99.90
4058;DHT22;2044;48.692;9.020;2023-08-30T03:06:49;10.30;99.90
4058;DHT22;2044;48.692;9.020;2023-08-30T03:11:44;10.60;99.90
4058;DHT22;2044;48.692;9.020;2023-08-30T03:14:11;10.00;99.90
4058;DHT22;2044;48.692;9.020;2023-08-30T03:16:39;9.90;99.90
4058;DHT22;2044;48.692;9.020;2023-08-30T03:19:05;10.30;99.90
4058;DHT22;2044;48.692;9.020;2023-08-30T03:21:32;10.10;99.90
4058;DHT22;2044;48.692;9.020;2023-08-30T03:23:59;9.70;99.90
4058;DHT22;2044;48.692;9.020;2023-08-30T03:26:26;10.10;99.90
4058;DHT22;2044;48.692;9.020;2023-08-30T03:28:54;10.30;99.90
4058;DHT22;2044;48.692;9.020;2023-08-30T03:31:21;10.40;99.90
4058;DHT22;2044;48.692;9.020;2023-08-30T03:33:48;10.40;99.90
4058;DHT22;2044;48.692;9.020;2023-08-30T03:36:17;10.40;99.90
4058;DHT22;2044;48.692;9.020;2023-08-30T03:38:44;10.50;99.90
4058;DHT22;2044;48.692;9.020;2023-08-30T03:41:12;10.30;99.90
4058;DHT22;2044;48.692;9.020;2023-08-30T03:43:38;10.40;99.90
4058;DHT22;2044;48.692;9.020;2023-08-30T03:46:06;10.10;99.90
4058;DHT22;2044;48.692;9.020;2023-08-30T03:48:34;10.00;99.90
4058;DHT22;2044;48.692;9.020;2023-08-30T03:53:28;9.80;99.90
4058;DHT22;2044;48.692;9.020;2023-08-30T03:58:23;10.10;99.90
4058;DHT22;2044;48.692;9.020;2023-08-30T04:03:18;10.10;99.90
4058;DHT22;2044;48.692;9.020;2023-08-30T04:05:44;10.40;99.90
4058;DHT22;2044;48.692;9.020;2023-08-30T04:08:11;10.10;99.90
4058;DHT22;2044;48.692;9.020;2023-08-30T04:10:39;10.40;99.90
4058;DHT22;2044;48.692;9.020;2023-08-30T04:13:07;12.80;99.90
4058;DHT22;2044;48.692;9.020;2023-08-30T04:15:34;10.50;99.90
4058;DHT22;2044;48.692;9.020;2023-08-30T04:18:01;10.60;99.90
4058;DHT22;2044;48.692;9.020;2023-08-30T04:20:29;10.40;99.90
4058;DHT22;2044;48.692;9.020;2023-08-30T04:22:55;10.40;99.90
4058;DHT22;2044;48.692;9.020;2023-08-30T04:25:23;10.40;99.90
4058;DHT22;2044;48.692;9.020;2023-08-30T04:30:17;10.50;99.90
4058;DHT22;2044;48.692;9.020;2023-08-30T04:32:44;10.30;99.90
4058;DHT22;2044;48.692;9.020;2023-08-30T04:37:39;10.80;99.90
4058;DHT22;2044;48.692;9.020;2023-08-30T04:40:07;10.20;99.90
4058;DHT22;2044;48.692;9.020;2023-08-30T04:42:34;10.50;99.90
4058;DHT22;2044;48.692;9.020;2023-08-30T04:45:01;10.50;99.90
4058;DHT22;2044;48.692;9.020;2023-08-30T04:47:28;11.00;99.90
4058;DHT22;2044;48.692;9.020;2023-08-30T04:49:55;10.30;99.90
4058;DHT22;2044;48.692;9.020;2023-08-30T04:54:51;10.60;99.90
4058;DHT22;2044;48.692;9.020;2023-08-30T04:57:17;11.10;99.90
4058;DHT22;2044;48.692;9.020;2023-08-30T04:59:45;10.70;99.90
4058;DHT22;2044;48.692;9.020;2023-08-30T05:02:12;10.60;99.90
4058;DHT22;2044;48.692;9.020;2023-08-30T05:07:06;10.60;99.90
4058;DHT22;2044;48.692;9.020;2023-08-30T05:09:33;10.80;99.90
4058;DHT22;2044;48.692;9.020;2023-08-30T05:12:01;10.50;99.90
4058;DHT22;2044;48.692;9.020;2023-08-30T05:19:22;10.80;99.90
4058;DHT22;2044;48.692;9.020;2023-08-30T05:21:49;10.80;99.90
4058;DHT22;2044;48.692;9.020;2023-08-30T05:24:16;10.80;99.90
4058;DHT22;2044;48.692;9.020;2023-08-30T05:26:43;10.90;99.90
4058;DHT22;2044;48.692;9.020;2023-08-30T05:29:13;10.70;99.90
4058;DHT22;2044;48.692;9.020;2023-08-30T05:31:40;11.30;99.90
4058;DHT22;2044;48.692;9.020;2023-08-30T05:34:07;11.00;99.90
4058;DHT22;2044;48.692;9.020;2023-08-30T05:36:34;11.30;99.90
4058;DHT22;2044;48.692;9.020;2023-08-30T05:39:00;10.90;99.90
4058;DHT22;2044;48.692;9.020;2023-08-30T05:46:24;10.80;99.90
4058;DHT22;2044;48.692;9.020;2023-08-30T05:48:51;10.70;99.90
4058;DHT22;2044;48.692;9.020;2023-08-30T05:56:14;11.30;99.90
4058;DHT22;2044;48.692;9.020;2023-08-30T06:01:08;11.30;99.90
4058;DHT22;2044;48.692;9.020;2023-08-30T06:03:36;11.30;99.90
4058;DHT22;2044;48.692;9.020;2023-08-30T06:06:03;11.20;99.90
4058;DHT22;2044;48.692;9.020;2023-08-30T06:08:29;11.30;99.90
4058;DHT22;2044;48.692;9.020;2023-08-30T06:10:56;11.40;99.90
4058;DHT22;2044;48.692;9.020;2023-08-30T06:15:50;11.20;99.90
4058;DHT22;2044;48.692;9.020;2023-08-30T06:18:17;11.10;99.90
4058;DHT22;2044;48.692;9.020;2023-08-30T06:20:46;11.50;99.90
4058;DHT22;2044;48.692;9.020;2023-08-30T06:23:13;11.50;99.90
4058;DHT22;2044;48.692;9.020;2023-08-30T06:25:40;11.00;99.90
4058;DHT22;2044;48.692;9.020;2023-08-30T06:28:07;11.70;99.90
4058;DHT22;2044;48.692;9.020;2023-08-30T06:30:34;11.10;99.90
4058;DHT22;2044;48.692;9.020;2023-08-30T06:40:23;11.30;99.90
4058;DHT22;2044;48.692;9.020;2023-08-30T06:45:17;11.30;99.90
4058;DHT22;2044;48.692;9.020;2023-08-30T06:47:43;11.20;99.90
4058;DHT22;2044;48.692;9.020;2023-08-30T06:52:37;11.40;99.90
4058;DHT22;2044;48.692;9.020;2023-08-30T06:55:06;11.40;99.90
4058;DHT22;2044;48.692;9.020;2023-08-30T06:57:32;11.70;99.90
4058;DHT22;2044;48.692;9.020;2023-08-30T06:59:59;11.60;99.90
4058;DHT22;2044;48.692;9.020;2023-08-30T07:05:00;11.70;99.90
4058;DHT22;2044;48.692;9.020;2023-08-30T07:09:54;12.20;99.90
4058;DHT22;2044;48.692;9.020;2023-08-30T07:12:22;12.60;99.90
4058;DHT22;2044;48.692;9.020;2023-08-30T07:14:49;12.10;99.90
4058;DHT22;2044;48.692;9.020;2023-08-30T07:22:16;12.20;99.90
4058;DHT22;2044;48.692;9.020;2023-08-30T07:24:42;12.50;99.90
4058;DHT22;2044;48.692;9.020;2023-08-30T07:29:38;12.40;99.90
4058;DHT22;2044;48.692;9.020;2023-08-30T07:32:05;12.50;99.90
4058;DHT22;2044;48.692;9.020;2023-08-30T07:34:32;12.60;99.90
4058;DHT22;2044;48.692;9.020;2023-08-30T07:36:59;12.90;99.90
4058;DHT22;2044;48.692;9.020;2023-08-30T07:41:52;13.00;99.90
4058;DHT22;2044;48.692;9.020;2023-08-30T07:46:48;13.00;99.90
4058;DHT22;2044;48.692;9.020;2023-08-30T07:59:03;12.50;99.90
4058;DHT22;2044;48.692;9.020;2023-08-30T08:01:29;12.80;99.90
4058;DHT22;2044;48.692;9.020;2023-08-30T08:03:57;12.90;99.90
4058;DHT22;2044;48.692;9.020;2023-08-30T08:06:24;12.80;99.90
4058;DHT22;2044;48.692;9.020;2023-08-30T08:08:51;13.20;99.90
4058;DHT22;2044;48.692;9.020;2023-08-30T08:11:18;13.40;99.90
4058;DHT22;2044;48.692;9.020;2023-08-30T08:16:11;13.60;99.90
4058;DHT22;2044;48.692;9.020;2023-08-30T08:18:38;13.70;99.90
4058;DHT22;2044;48.692;9.020;2023-08-30T08:21:06;14.10;99.90
4058;DHT22;2044;48.692;9.020;2023-08-30T08:26:00;14.80;99.90
4058;DHT22;2044;48.692;9.020;2023-08-30T08:28:28;15.40;99.90
4058;DHT22;2044;48.692;9.020;2023-08-30T08:33:21;15.20;99.90
4058;DHT22;2044;48.692;9.020;2023-08-30T08:35:49;15.30;99.90
4058;DHT22;2044;48.692;9.020;2023-08-30T08:38:17;15.50;99.90
4058;DHT22;2044;48.692;9.020;2023-08-30T08:40:44;15.40;99.90
4058;DHT22;2044;48.692;9.020;2023-08-30T08:43:11;15.60;99.90
4058;DHT22;2044;48.692;9.020;2023-08-30T08:45:39;15.90;99.90
4058;DHT22;2044;48.692;9.020;2023-08-30T08:48:06;15.90;99.90
4058;DHT22;2044;48.692;9.020;2023-08-30T08:50:33;15.80;99.90
4058;DHT22;2044;48.692;9.020;2023-08-30T08:53:02;15.40;99.90
4058;DHT22;2044;48.692;9.020;2023-08-30T08:55:31;15.30;99.90
4058;DHT22;2044;48.692;9.020;2023-08-30T08:57:58;15.40;99.90
4058;DHT22;2044;48.692;9.020;2023-08-30T09:00:25;15.50;99.90
4058;DHT22;2044;48.692;9.020;2023-08-30T09:02:53;15.50;99.90
4058;DHT22;2044;48.692;9.020;2023-08-30T09:05:20;15.70;99.90
4058;DHT22;2044;48.692;9.020;2023-08-30T09:20:11;16.70;99.90
4058;DHT22;2044;48.692;9.020;2023-08-30T09:22:39;17.10;99.90
4058;DHT22;2044;48.692;9.020;2023-08-30T09:25:08;16.90;99.90
4058;DHT22;2044;48.692;9.020;2023-08-30T09:27:35;17.30;99.90
4058;DHT22;2044;48.692;9.020;2023-08-30T09:30:06;17.80;99.90
4058;DHT22;2044;48.692;9.020;2023-08-30T09:32:39;18.20;99.90
4058;DHT22;2044;48.692;9.020;2023-08-30T09:42:28;20.40;99.90
4058;DHT22;2044;48.692;9.020;2023-08-30T09:44:56;20.10;99.90
4058;DHT22;2044;48.692;9.020;2023-08-30T09:47:24;19.80;99.90
4058;DHT22;2044;48.692;9.020;2023-08-30T09:49:54;19.80;99.90
4058;DHT22;2044;48.692;9.020;2023-08-30T09:52:24;19.40;99.90
4058;DHT22;2044;48.692;9.020;2023-08-30T09:54:51;20.10;99.90
4058;DHT22;2044;48.692;9.020;2023-08-30T09:57:19;20.90;99.90
4058;DHT22;2044;48.692;9.020;2023-08-30T09:59:48;21.50;99.90
4058;DHT22;2044;48.692;9.020;2023-08-30T10:04:45;20.40;99.90
4058;DHT22;2044;48.692;9.020;2023-08-30T10:07:13;20.40;99.90
4058;DHT22;2044;48.692;9.020;2023-08-30T10:09:41;21.10;99.90
4058;DHT22;2044;48.692;9.020;2023-08-30T10:12:10;21.40;99.90
4058;DHT22;2044;48.692;9.020;2023-08-30T10:17:05;21.00;99.90
4058;DHT22;2044;48.692;9.020;2023-08-30T10:19:34;21.00;99.90
4058;DHT22;2044;48.692;9.020;2023-08-30T10:22:06;21.50;99.90
4058;DHT22;2044;48.692;9.020;2023-08-30T10:24:39;21.30;99.90
4058;DHT22;2044;48.692;9.020;2023-08-30T10:27:08;21.40;99.90
4058;DHT22;2044;48.692;9.020;2023-08-30T10:29:36;22.10;99.90
4058;DHT22;2044;48.692;9.020;2023-08-30T10:32:04;20.50;99.90
4058;DHT22;2044;48.692;9.020;2023-08-30T10:34:32;20.70;99.90
4058;DHT22;2044;48.692;9.020;2023-08-30T10:37:00;20.60;99.90
4058;DHT22;2044;48.692;9.020;2023-08-30T10:39:34;20.90;99.90
4058;DHT22;2044;48.692;9.020;2023-08-30T10:42:06;20.10;99.90
4058;DHT22;2044;48.692;9.020;2023-08-30T10:44:33;20.30;99.90
4058;DHT22;2044;48.692;9.020;2023-08-30T10:47:02;21.20;99.90
4058;DHT22;2044;48.692;9.020;2023-08-30T10:49:29;21.20;99.90
4058;DHT22;2044;48.692;9.020;2023-08-30T10:52:05;22.10;99.90
4058;DHT22;2044;48.692;9.020;2023-08-30T10:54:39;21.30;99.90
4058;DHT22;2044;48.692;9.020;2023-08-30T10:57:12;22.30;99.90
4058;DHT22;2044;48.692;9.020;2023-08-30T11:04:39;23.50;99.90
4058;DHT22;2044;48.692;9.020;2023-08-30T11:07:07;22.10;99.90
4058;DHT22;2044;48.692;9.020;2023-08-30T11:09:33;21.60;99.90
4058;DHT22;2044;48.692;9.020;2023-08-30T11:12:05;21.40;99.90
4058;DHT22;2044;48.692;9.020;2023-08-30T11:14:32;21.10;99.90
4058;DHT22;2044;48.692;9.020;2023-08-30T11:19:29;22.70;99.90
4058;DHT22;2044;48.692;9.020;2023-08-30T11:26:53;22.00;99.90
4058;DHT22;2044;48.692;9.020;2023-08-30T11:29:21;21.80;99.90
4058;DHT22;2044;48.692;9.020;2023-08-30T11:31:49;21.00;99.90
4058;DHT22;2044;48.692;9.020;2023-08-30T11:34:20;20.80;99.90
4058;DHT22;2044;48.692;9.020;2023-08-30T11:39:16;19.60;99.90
4058;DHT22;2044;48.692;9.020;2023-08-30T11:41:43;17.80;99.90
4058;DHT22;2044;48.692;9.020;2023-08-30T11:46:38;16.90;99.90
4058;DHT22;2044;48.692;9.020;2023-08-30T11:49:05;16.00;99.90
4058;DHT22;2044;48.692;9.020;2023-08-30T11:51:33;15.60;99.90
4058;DHT22;2044;48.692;9.020;2023-08-30T11:56:29;15.20;99.90
4058;DHT22;2044;48.692;9.020;2023-08-30T12:11:19;14.60;99.90
4058;DHT22;2044;48.692;9.020;2023-08-30T12:16:17;14.50;99.90
4058;DHT22;2044;48.692;9.020;2023-08-30T12:21:13;14.70;99.90
4058;DHT22;2044;48.692;9.020;2023-08-30T12:26:09;14.60;99.90
4058;DHT22;2044;48.692;9.020;2023-08-30T12:38:27;16.40;99.90
4058;DHT22;2044;48.692;9.020;2023-08-30T12:45:49;17.70;99.90
4058;DHT22;2044;48.692;9.020;2023-08-30T12:48:17;17.90;99.90
4058;DHT22;2044;48.692;9.020;2023-08-30T12:50:45;18.40;99.90
4058;DHT22;2044;48.692;9.020;2023-08-30T12:53:12;18.90;99.90
4058;DHT22;2044;48.692;9.020;2023-08-30T12:55:41;19.80;99.90
4058;DHT22;2044;48.692;9.020;2023-08-30T12:58:08;19.20;99.90
4058;DHT22;2044;48.692;9.020;2023-08-30T13:00:35;20.10;99.90
4058;DHT22;2044;48.692;9.020;2023-08-30T13:03:02;20.50;99.90
4058;DHT22;2044;48.692;9.020;2023-08-30T13:05:29;20.80;99.90
4058;DHT22;2044;48.692;9.020;2023-08-30T13:07:57;20.70;99.90
4058;DHT22;2044;48.692;9.020;2023-08-30T13:10:24;20.20;99.90
4058;DHT22;2044;48.692;9.020;2023-08-30T13:12:52;20.40;99.90
4058;DHT22;2044;48.692;9.020;2023-08-30T13:17:46;20.00;99.90
4058;DHT22;2044;48.692;9.020;2023-08-30T13:22:39;20.20;99.90
4058;DHT22;2044;48.692;9.020;2023-08-30T13:25:07;20.60;99.90
4058;DHT22;2044;48.692;9.020;2023-08-30T13:27:34;20.40;99.90
4058;DHT22;2044;48.692;9.020;2023-08-30T13:30:02;19.90;99.90
4058;DHT22;2044;48.692;9.020;2023-08-30T13:32:29;20.70;99.90
4058;DHT22;2044;48.692;9.020;2023-08-30T13:34:56;20.10;99.90
4058;DHT22;2044;48.692;9.020;2023-08-30T13:39:49;20.30;99.90
4058;DHT22;2044;48.692;9.020;2023-08-30T13:42:16;20.90;99.90
4058;DHT22;2044;48.692;9.020;2023-08-30T13:47:12;19.60;99.90
4058;DHT22;2044;48.692;9.020;2023-08-30T13:49:39;20.50;99.90
4058;DHT22;2044;48.692;9.020;2023-08-30T13:52:06;21.30;99.90
4058;DHT22;2044;48.692;9.020;2023-08-30T13:54:33;21.00;99.90
4058;DHT22;2044;48.692;9.020;2023-08-30T13:56:59;21.10;99.90
4058;DHT22;2044;48.692;9.020;2023-08-30T13:59:26;21.50;99.90
4058;DHT22;2044;48.692;9.020;2023-08-30T14:01:54;21.70;99.90
4058;DHT22;2044;48.692;9.020;2023-08-30T14:04:24;21.30;99.90
4058;DHT22;2044;48.692;9.020;2023-08-30T14:06:51;20.20;99.90
4058;DHT22;2044;48.692;9.020;2023-08-30T14:11:45;19.90;99.90
4058;DHT22;2044;48.692;9.020;2023-08-30T14:16:38;19.90;99.90
4058;DHT22;2044;48.692;9.020;2023-08-30T14:19:05;20.10;99.90
4058;DHT22;2044;48.692;9.020;2023-08-30T14:21:33;20.10;99.90
4058;DHT22;2044;48.692;9.020;2023-08-30T14:26:28;19.70;99.90
4058;DHT22;2044;48.692;9.020;2023-08-30T14:28:55;19.30;99.90
4058;DHT22;2044;48.692;9.020;2023-08-30T14:31:21;19.70;99.90
4058;DHT22;2044;48.692;9.020;2023-08-30T14:36:15;19.20;99.90
4058;DHT22;2044;48.692;9.020;2023-08-30T14:38:43;19.40;99.90
4058;DHT22;2044;48.692;9.020;2023-08-30T14:41:10;19.90;99.90
4058;DHT22;2044;48.692;9.020;2023-08-30T14:43:37;19.60;99.90
4058;DHT22;2044;48.692;9.020;2023-08-30T14:46:05;19.50;99.90
4058;DHT22;2044;48.692;9.020;2023-08-30T14:48:32;19.90;99.90
4058;DHT22;2044;48.692;9.020;2023-08-30T14:51:00;20.00;99.90
4058;DHT22;2044;48.692;9.020;2023-08-30T14:53:27;20.40;99.90
4058;DHT22;2044;48.692;9.020;2023-08-30T14:55:55;20.20;99.90
4058;DHT22;2044;48.692;9.020;2023-08-30T14:58:22;20.00;99.90
4058;DHT22;2044;48.692;9.020;2023-08-30T15:00:49;20.40;99.90
4058;DHT22;2044;48.692;9.020;2023-08-30T15:03:16;20.10;99.90
4058;DHT22;2044;48.692;9.020;2023-08-30T15:08:10;20.20;99.90
4058;DHT22;2044;48.692;9.020;2023-08-30T15:10:37;19.80;99.90
4058;DHT22;2044;48.692;9.020;2023-08-30T15:17:59;19.60;99.90
4058;DHT22;2044;48.692;9.020;2023-08-30T15:20:26;19.40;99.90
4058;DHT22;2044;48.692;9.020;2023-08-30T15:27:46;20.30;99.90
4058;DHT22;2044;48.692;9.020;2023-08-30T15:40:06;20.80;99.90
4058;DHT22;2044;48.692;9.020;2023-08-30T15:42:34;21.40;99.90
4058;DHT22;2044;48.692;9.020;2023-08-30T15:45:02;21.80;99.90
4058;DHT22;2044;48.692;9.020;2023-08-30T15:47:31;21.80;99.90
4058;DHT22;2044;48.692;9.020;2023-08-30T15:52:25;19.70;99.90
4058;DHT22;2044;48.692;9.020;2023-08-30T15:54:51;19.30;99.90
4058;DHT22;2044;48.692;9.020;2023-08-30T15:59:47;20.10;99.90
4058;DHT22;2044;48.692;9.020;2023-08-30T16:02:14;20.20;99.90
4058;DHT22;2044;48.692;9.020;2023-08-30T16:04:42;20.30;99.90
4058;DHT22;2044;48.692;9.020;2023-08-30T16:09:35;20.90;99.90
4058;DHT22;2044;48.692;9.020;2023-08-30T16:12:02;21.40;99.90
4058;DHT22;2044;48.692;9.020;2023-08-30T16:14:29;21.30;99.90
4058;DHT22;2044;48.692;9.020;2023-08-30T16:16:56;20.30;99.90
4058;DHT22;2044;48.692;9.020;2023-08-30T16:21:52;19.50;99.90
4058;DHT22;2044;48.692;9.020;2023-08-30T16:26:48;18.80;99.90
4058;DHT22;2044;48.692;9.020;2023-08-30T16:29:19;18.50;99.90
4058;DHT22;2044;48.692;9.020;2023-08-30T16:31:45;18.00;99.90
4058;DHT22;2044;48.692;9.020;2023-08-30T16:34:14;18.60;99.90
4058;DHT22;2044;48.692;9.020;2023-08-30T16:36:41;18.70;99.90
4058;DHT22;2044;48.692;9.020;2023-08-30T16:39:09;19.60;99.90
4058;DHT22;2044;48.692;9.020;2023-08-30T16:41:36;19.30;99.90
4058;DHT22;2044;48.692;9.020;2023-08-30T16:44:03;19.90;99.90
4058;DHT22;2044;48.692;9.020;2023-08-30T16:48:59;19.70;99.90
4058;DHT22;2044;48.692;9.020;2023-08-30T16:53:52;18.00;99.90
4058;DHT22;2044;48.692;9.020;2023-08-30T16:56:20;18.20;99.90
4058;DHT22;2044;48.692;9.020;2023-08-30T16:58:47;18.30;99.90
4058;DHT22;2044;48.692;9.020;2023-08-30T17:03:41;18.50;99.90
4058;DHT22;2044;48.692;9.020;2023-08-30T17:06:08;18.70;99.90
4058;DHT22;2044;48.692;9.020;2023-08-30T17:11:03;18.40;99.90
4058;DHT22;2044;48.692;9.020;2023-08-30T17:13:31;18.10;99.90
4058;DHT22;2044;48.692;9.020;2023-08-30T17:18:25;17.30;99.90
4058;DHT22;2044;48.692;9.020;2023-08-30T17:23:20;17.60;99.90
4058;DHT22;2044;48.692;9.020;2023-08-30T17:25:48;17.60;99.90
4058;DHT22;2044;48.692;9.020;2023-08-30T17:30:43;17.90;99.90
4058;DHT22;2044;48.692;9.020;2023-08-30T17:33:10;17.80;99.90
4058;DHT22;2044;48.692;9.020;2023-08-30T17:35:37;17.60;99.90
4058;DHT22;2044;48.692;9.020;2023-08-30T17:38:04;17.50;99.90
4058;DHT22;2044;48.692;9.020;2023-08-30T17:42:59;17.00;99.90
4058;DHT22;2044;48.692;9.020;2023-08-30T17:45:29;16.80;99.90
4058;DHT22;2044;48.692;9.020;2023-08-30T17:47:59;16.60;99.90
4058;DHT22;2044;48.692;9.020;2023-08-30T17:50:26;16.50;99.90
4058;DHT22;2044;48.692;9.020;2023-08-30T17:52:53;16.60;99.90
4058;DHT22;2044;48.692;9.020;2023-08-30T17:57:46;16.50;99.90
4058;DHT22;2044;48.692;9.020;2023-08-30T18:00:14;16.30;99.90
4058;DHT22;2044;48.692;9.020;2023-08-30T18:02:44;16.20;99.90
4058;DHT22;2044;48.692;9.020;2023-08-30T18:05:12;16.10;99.90
4058;DHT22;2044;48.692;9.020;2023-08-30T18:07:39;15.90;99.90
4058;DHT22;2044;48.692;9.020;2023-08-30T18:10:07;15.80;99.90
4058;DHT22;2044;48.692;9.020;2023-08-30T18:12:33;16.00;99.90
4058;DHT22;2044;48.692;9.020;2023-08-30T18:15:00;15.60;99.90
4058;DHT22;2044;48.692;9.020;2023-08-30T18:17:27;15.70;99.90
4058;DHT22;2044;48.692;9.020;2023-08-30T18:19:55;15.40;99.90
4058;DHT22;2044;48.692;9.020;2023-08-30T18:22:24;15.60;99.90
4058;DHT22;2044;48.692;9.020;2023-08-30T18:24:50;15.20;99.90
4058;DHT22;2044;48.692;9.020;2023-08-30T18:27:17;15.40;99.90
4058;DHT22;2044;48.692;9.020;2023-08-30T18:32:13;15.30;99.90
4058;DHT22;2044;48.692;9.020;2023-08-30T18:34:39;15.40;99.90
4058;DHT22;2044;48.692;9.020;2023-08-30T18:37:07;15.00;99.90
4058;DHT22;2044;48.692;9.020;2023-08-30T18:39:36;15.20;99.90
4058;DHT22;2044;48.692;9.020;2023-08-30T18:44:30;15.20;99.90
4058;DHT22;2044;48.692;9.020;2023-08-30T18:46:57;15.30;99.90
4058;DHT22;2044;48.692;9.020;2023-08-30T18:49:24;15.20;99.90
4058;DHT22;2044;48.692;9.020;2023-08-30T18:51:51;15.20;99.90
4058;DHT22;2044;48.692;9.020;2023-08-30T18:54:18;14.60;99.90
4058;DHT22;2044;48.692;9.020;2023-08-30T18:56:48;15.00;99.90
4058;DHT22;2044;48.692;9.020;2023-08-30T18:59:14;15.10;99.90
4058;DHT22;2044;48.692;9.020;2023-08-30T19:04:08;15.10;99.90
4058;DHT22;2044;48.692;9.020;2023-08-30T19:06:35;14.80;99.90
4058;DHT22;2044;48.692;9.020;2023-08-30T19:09:02;14.90;99.90
4058;DHT22;2044;48.692;9.020;2023-08-30T19:14:00;14.70;99.90
4058;DHT22;2044;48.692;9.020;2023-08-30T19:16:27;14.80;99.90
4058;DHT22;2044;48.692;9.020;2023-08-30T19:21:23;14.60;99.90
4058;DHT22;2044;48.692;9.020;2023-08-30T19:23:49;14.40;99.90
4058;DHT22;2044;48.692;9.020;2023-08-30T19:26:16;14.70;99.90
4058;DHT22;2044;48.692;9.020;2023-08-30T19:28:44;14.60;99.90
4058;DHT22;2044;48.692;9.020;2023-08-30T19:31:12;14.60;99.90
4058;DHT22;2044;48.692;9.020;2023-08-30T19:33:38;14.80;99.90
4058;DHT22;2044;48.692;9.020;2023-08-30T19:36:05;14.80;99.90
4058;DHT22;2044;48.692;9.020;2023-08-30T19:40:59;14.70;99.90
4058;DHT22;2044;48.692;9.020;2023-08-30T19:46:00;14.80;99.90
4058;DHT22;2044;48.692;9.020;2023-08-30T19:48:29;14.60;99.90
4058;DHT22;2044;48.692;9.020;2023-08-30T19:50:56;14.70;99.90
4058;DHT22;2044;48.692;9.020;2023-08-30T19:55:50;14.90;99.90
4058;DHT22;2044;48.692;9.020;2023-08-30T19:58:17;14.90;99.90
4058;DHT22;2044;48.692;9.020;2023-08-30T20:00:45;14.70;99.90
4058;DHT22;2044;48.692;9.020;2023-08-30T20:05:48;14.80;99.90
4058;DHT22;2044;48.692;9.020;2023-08-30T20:10:42;14.70;99.90
4058;DHT22;2044;48.692;9.020;2023-08-30T20:15:36;14.60;99.90
4058;DHT22;2044;48.692;9.020;2023-08-30T20:20:33;14.50;99.90
4058;DHT22;2044;48.692;9.020;2023-08-30T20:23:03;14.80;99.90
4058;DHT22;2044;48.692;9.020;2023-08-30T20:25:30;15.10;99.90
4058;DHT22;2044;48.692;9.020;2023-08-30T20:27:58;14.80;99.90
4058;DHT22;2044;48.692;9.020;2023-08-30T20:32:53;14.80;99.90
4058;DHT22;2044;48.692;9.020;2023-08-30T20:35:20;14.40;99.90
4058;DHT22;2044;48.692;9.020;2023-08-30T20:40:16;14.50;99.90
4058;DHT22;2044;48.692;9.020;2023-08-30T20:42:43;14.70;99.90
4058;DHT22;2044;48.692;9.020;2023-08-30T20:45:10;14.60;99.90
4058;DHT22;2044;48.692;9.020;2023-08-30T20:47:37;14.80;99.90
4058;DHT22;2044;48.692;9.020;2023-08-30T20:50:05;14.40;99.90
4058;DHT22;2044;48.692;9.020;2023-08-30T20:52:32;14.40;99.90
4058;DHT22;2044;48.692;9.020;2023-08-30T20:54:59;14.20;99.90
4058;DHT22;2044;48.692;9.020;2023-08-30T20:57:31;14.60;99.90
4058;DHT22;2044;48.692;9.020;2023-08-30T20:59:58;14.10;99.90
4058;DHT22;2044;48.692;9.020;2023-08-30T21:02:25;14.60;99.90
4058;DHT22;2044;48.692;9.020;2023-08-30T21:04:53;14.00;99.90
4058;DHT22;2044;48.692;9.020;2023-08-30T21:07:20;13.80;99.90
4058;DHT22;2044;48.692;9.020;2023-08-30T21:12:13;13.90;99.90
4058;DHT22;2044;48.692;9.020;2023-08-30T21:14:41;13.50;99.90